Time;durP1;ratioP1;P1;durP2;ratioP2;P2;SDS_P1;SDS_P2;PMS_P1;PMS_P2;Temp;Humidity;BMP_temperature;BMP_pressure;BME280_temperature;BME280_humidity;BME280_pressure;Samples;Min_cycle;Max_cycle;Signal;HPM_P1;HPM_P2
2022/04/30 00:01:06;;;;;;;;;;;11.80;77.90;;;;;;5073192;28;19904;-75
2022/04/30 00:03:31;;;;;;;;;;;11.80;77.80;;;;;;5073099;28;19904;-75
2022/04/30 00:05:57;;;;;;;;;;;11.80;77.80;;;;;;5072814;28;20331;-75
2022/04/30 00:08:23;;;;;;;;;;;11.80;77.60;;;;;;5073116;28;19908;-75
2022/04/30 00:10:50;;;;;;;;;;;11.90;77.60;;;;;;5072590;28;19920;-76
2022/04/30 00:13:15;;;;;;;;;;;11.80;77.70;;;;;;5072823;28;19911;-75
2022/04/30 00:15:41;;;;;;;;;;;11.80;77.70;;;;;;5075071;28;19904;-75
2022/04/30 00:18:08;;;;;;;;;;;11.80;77.80;;;;;;5076329;28;20363;-75
2022/04/30 00:20:36;;;;;;;;;;;11.80;77.80;;;;;;5076647;28;19904;-75
2022/04/30 00:23:02;;;;;;;;;;;11.70;77.90;;;;;;5076338;28;19912;-75
2022/04/30 00:25:28;;;;;;;;;;;11.70;78.10;;;;;;5076586;28;19912;-75
2022/04/30 00:27:53;;;;;;;;;;;11.70;78.20;;;;;;5076529;28;19905;-75
2022/04/30 00:30:19;;;;;;;;;;;11.50;78.50;;;;;;5076184;28;19929;-75
2022/04/30 00:32:44;;;;;;;;;;;11.40;78.90;;;;;;5076219;28;19911;-75
2022/04/30 00:35:10;;;;;;;;;;;11.40;79.10;;;;;;5076042;28;19908;-76
2022/04/30 00:37:35;;;;;;;;;;;11.40;79.00;;;;;;5076160;28;19912;-76
2022/04/30 00:40:02;;;;;;;;;;;11.40;78.80;;;;;;5076309;28;20371;-75
2022/04/30 00:42:27;;;;;;;;;;;11.50;78.80;;;;;;5076386;28;20291;-75
2022/04/30 00:44:53;;;;;;;;;;;11.50;78.80;;;;;;5076203;28;19913;-77
2022/04/30 00:47:19;;;;;;;;;;;11.50;78.70;;;;;;5076076;28;19919;-77
2022/04/30 00:49:45;;;;;;;;;;;11.50;78.50;;;;;;5075504;28;20373;-77
2022/04/30 00:52:12;;;;;;;;;;;11.50;79.30;;;;;;5076051;28;19912;-77
2022/04/30 00:54:40;;;;;;;;;;;11.40;78.90;;;;;;5076042;28;19904;-77
2022/04/30 00:57:09;;;;;;;;;;;11.30;79.30;;;;;;5075781;28;19951;-77
2022/04/30 00:59:37;;;;;;;;;;;11.20;79.50;;;;;;5075652;28;19999;-77
2022/04/30 01:02:03;;;;;;;;;;;11.30;79.50;;;;;;5075755;28;20320;-77
2022/04/30 01:04:28;;;;;;;;;;;11.20;79.50;;;;;;5075478;28;19908;-77
2022/04/30 01:07:00;;;;;;;;;;;11.20;79.50;;;;;;5075849;28;19909;-77
2022/04/30 01:09:28;;;;;;;;;;;11.00;79.80;;;;;;5075117;28;19998;-76
2022/04/30 01:12:00;;;;;;;;;;;11.00;80.20;;;;;;5075623;28;19915;-77
2022/04/30 01:14:26;;;;;;;;;;;10.90;80.30;;;;;;5075763;28;19905;-77
2022/04/30 01:16:52;;;;;;;;;;;10.90;80.70;;;;;;5075628;28;19911;-77
2022/04/30 01:19:19;;;;;;;;;;;10.90;80.90;;;;;;5075551;28;19904;-77
2022/04/30 01:21:47;;;;;;;;;;;10.80;81.30;;;;;;5075233;28;19908;-77
2022/04/30 01:24:13;;;;;;;;;;;10.70;81.60;;;;;;5075464;28;19916;-77
2022/04/30 01:26:39;;;;;;;;;;;10.70;81.70;;;;;;5073870;28;19908;-77
2022/04/30 01:29:04;;;;;;;;;;;10.70;81.80;;;;;;5075194;28;19957;-77
2022/04/30 01:39:42;;;;;;;;;;;10.20;83.60;;;;;;5074714;28;20004;-77
2022/04/30 01:42:12;;;;;;;;;;;10.00;84.40;;;;;;5074701;28;19940;-77
2022/04/30 01:44:38;;;;;;;;;;;9.90;85.00;;;;;;5075031;28;19908;-77
2022/04/30 01:47:04;;;;;;;;;;;9.90;85.30;;;;;;5074907;28;19939;-77
2022/04/30 01:49:29;;;;;;;;;;;10.00;85.40;;;;;;5074857;28;20260;-77
2022/04/30 01:51:55;;;;;;;;;;;9.80;85.70;;;;;;5074667;28;19974;-77
2022/04/30 01:54:20;;;;;;;;;;;9.90;85.80;;;;;;5074612;28;19986;-77
2022/04/30 01:56:46;;;;;;;;;;;9.70;86.50;;;;;;5074812;28;20409;-77
2022/04/30 01:59:12;;;;;;;;;;;9.50;87.30;;;;;;5074714;28;19911;-77
2022/04/30 02:01:37;;;;;;;;;;;9.50;87.60;;;;;;5074383;28;19908;-77
2022/04/30 02:04:04;;;;;;;;;;;9.50;87.80;;;;;;5074287;28;20362;-76
2022/04/30 02:06:30;;;;;;;;;;;9.60;87.90;;;;;;5074314;28;19904;-76
2022/04/30 02:08:55;;;;;;;;;;;9.70;87.50;;;;;;5074527;28;19912;-76
2022/04/30 02:11:21;;;;;;;;;;;9.70;87.60;;;;;;5074101;28;19916;-76
2022/04/30 02:13:52;;;;;;;;;;;9.60;87.90;;;;;;5074399;28;19905;-76
2022/04/30 02:16:21;;;;;;;;;;;9.60;88.20;;;;;;5074231;28;20344;-77
2022/04/30 02:18:49;;;;;;;;;;;9.70;88.20;;;;;;5074223;28;19950;-77
2022/04/30 02:21:16;;;;;;;;;;;9.70;88.10;;;;;;5073942;28;20003;-76
2022/04/30 02:23:42;;;;;;;;;;;9.80;87.90;;;;;;5073948;28;20356;-77
2022/04/30 02:26:09;;;;;;;;;;;9.70;88.20;;;;;;5074327;28;19947;-77
2022/04/30 02:28:35;;;;;;;;;;;9.60;88.60;;;;;;5073972;28;19930;-77
2022/04/30 02:31:01;;;;;;;;;;;9.60;88.60;;;;;;5073782;28;19944;-76
2022/04/30 02:33:27;;;;;;;;;;;9.60;88.70;;;;;;5074014;28;19911;-76
2022/04/30 02:35:52;;;;;;;;;;;9.70;88.90;;;;;;5073965;28;20314;-76
2022/04/30 02:38:19;;;;;;;;;;;9.50;89.30;;;;;;5073523;28;19908;-76
2022/04/30 02:40:45;;;;;;;;;;;9.40;89.80;;;;;;5073947;28;19953;-76
2022/04/30 02:43:11;;;;;;;;;;;9.40;89.90;;;;;;5073921;28;19990;-76
2022/04/30 02:45:38;;;;;;;;;;;9.50;90.00;;;;;;5074013;28;20382;-76
2022/04/30 02:48:06;;;;;;;;;;;9.60;89.80;;;;;;5073835;28;20042;-76
2022/04/30 02:50:32;;;;;;;;;;;9.50;89.90;;;;;;5073470;28;19904;-76
2022/04/30 02:52:58;;;;;;;;;;;9.50;90.10;;;;;;5074038;28;19910;-76
2022/04/30 02:55:24;;;;;;;;;;;9.50;90.20;;;;;;5073927;28;19912;-76
2022/04/30 03:00:38;;;;;;;;;;;9.30;90.40;;;;;;5074002;28;19911;-76
2022/04/30 03:03:03;;;;;;;;;;;9.40;90.60;;;;;;5073400;28;19911;-76
2022/04/30 03:05:30;;;;;;;;;;;9.20;90.70;;;;;;5073651;28;19916;-77
2022/04/30 03:07:57;;;;;;;;;;;9.10;91.00;;;;;;5073910;28;19904;-77
2022/04/30 03:10:22;;;;;;;;;;;9.10;91.30;;;;;;5073673;28;20294;-76
2022/04/30 03:12:51;;;;;;;;;;;9.10;91.30;;;;;;5073540;28;19904;-77
2022/04/30 03:15:19;;;;;;;;;;;9.20;91.40;;;;;;5073803;28;19944;-76
2022/04/30 03:23:13;;;;;;;;;;;9.00;91.90;;;;;;5073300;28;20389;-76
2022/04/30 03:25:39;;;;;;;;;;;9.00;92.10;;;;;;5073574;28;19950;-76
2022/04/30 03:28:04;;;;;;;;;;;9.10;91.90;;;;;;5073581;28;19932;-76
2022/04/30 03:30:30;;;;;;;;;;;9.20;91.90;;;;;;5073562;28;19904;-76
2022/04/30 03:32:55;;;;;;;;;;;9.20;91.70;;;;;;5073272;28;19909;-77
2022/04/30 03:35:21;;;;;;;;;;;9.40;91.60;;;;;;5073237;28;19999;-76
2022/04/30 03:37:46;;;;;;;;;;;9.50;91.40;;;;;;5073611;28;19908;-75
2022/04/30 03:40:13;;;;;;;;;;;9.60;91.20;;;;;;5073337;28;19908;-75
2022/04/30 03:42:39;;;;;;;;;;;9.70;91.00;;;;;;5073156;28;20055;-76
2022/04/30 03:45:05;;;;;;;;;;;9.60;90.90;;;;;;5072903;28;19955;-76
2022/04/30 03:47:31;;;;;;;;;;;9.60;90.90;;;;;;5073146;28;19905;-75
2022/04/30 03:49:56;;;;;;;;;;;9.50;91.00;;;;;;5074336;28;19912;-75
2022/04/30 03:52:22;;;;;;;;;;;9.40;91.00;;;;;;5077254;28;19915;-75
2022/04/30 03:54:47;;;;;;;;;;;9.50;91.10;;;;;;5076662;28;19911;-76
2022/04/30 03:57:13;;;;;;;;;;;9.50;91.10;;;;;;5076889;28;19904;-76
2022/04/30 03:59:38;;;;;;;;;;;9.60;91.00;;;;;;5077017;28;19911;-76
2022/04/30 04:02:04;;;;;;;;;;;9.60;90.80;;;;;;5076986;28;19994;-76
2022/04/30 04:04:29;;;;;;;;;;;9.50;91.00;;;;;;5076591;28;19909;-75
2022/04/30 04:06:55;;;;;;;;;;;9.50;91.00;;;;;;5076731;28;20261;-75
2022/04/30 04:09:21;;;;;;;;;;;9.50;91.10;;;;;;5076472;28;19927;-75
2022/04/30 04:11:47;;;;;;;;;;;9.50;91.00;;;;;;5076863;28;19912;-75
2022/04/30 04:19:41;;;;;;;;;;;9.20;91.30;;;;;;5076429;28;20371;-76
2022/04/30 04:22:07;;;;;;;;;;;9.10;91.50;;;;;;5076355;28;19967;-78
2022/04/30 04:27:18;;;;;;;;;;;9.10;91.50;;;;;;5076412;28;20005;-75
2022/04/30 04:29:44;;;;;;;;;;;9.00;91.70;;;;;;5076437;28;19912;-76
2022/04/30 04:32:10;;;;;;;;;;;8.90;91.80;;;;;;5076432;28;19905;-76
2022/04/30 04:34:35;;;;;;;;;;;8.80;91.90;;;;;;5076254;28;20405;-75
2022/04/30 04:37:01;;;;;;;;;;;8.80;92.10;;;;;;5076048;28;19904;-76
2022/04/30 04:39:26;;;;;;;;;;;8.80;92.20;;;;;;5075819;28;19958;-75
2022/04/30 04:41:52;;;;;;;;;;;8.80;92.20;;;;;;5076371;28;19939;-73
2022/04/30 04:44:17;;;;;;;;;;;8.70;92.60;;;;;;5075371;28;19912;-76
2022/04/30 04:46:43;;;;;;;;;;;8.50;92.60;;;;;;5074254;28;19908;-74
2022/04/30 04:49:09;;;;;;;;;;;8.50;92.90;;;;;;5075061;28;20010;-74
2022/04/30 04:51:35;;;;;;;;;;;8.50;93.00;;;;;;5076058;28;20340;-75
2022/04/30 04:54:01;;;;;;;;;;;8.60;93.10;;;;;;5075855;28;19912;-75
2022/04/30 04:56:27;;;;;;;;;;;8.60;93.20;;;;;;5076135;28;19904;-76
2022/04/30 04:58:52;;;;;;;;;;;8.70;93.40;;;;;;5075752;28;20041;-75
2022/04/30 05:01:18;;;;;;;;;;;8.90;93.50;;;;;;5075483;28;19905;-76
2022/04/30 05:03:43;;;;;;;;;;;9.10;93.40;;;;;;5075412;28;19912;-74
2022/04/30 05:06:09;;;;;;;;;;;9.20;93.10;;;;;;5075527;28;19912;-75
2022/04/30 05:08:34;;;;;;;;;;;9.30;92.80;;;;;;5075841;28;20439;-74
2022/04/30 05:11:00;;;;;;;;;;;9.20;92.60;;;;;;5075368;28;20326;-74
2022/04/30 05:13:25;;;;;;;;;;;9.30;92.70;;;;;;5075457;28;20367;-74
2022/04/30 05:15:51;;;;;;;;;;;9.30;92.80;;;;;;5075410;28;19904;-75
2022/04/30 05:18:16;;;;;;;;;;;9.40;92.90;;;;;;5075417;28;19904;-75
2022/04/30 05:20:42;;;;;;;;;;;9.50;92.70;;;;;;5075018;28;19908;-74
2022/04/30 05:23:07;;;;;;;;;;;9.60;93.00;;;;;;5075549;28;20316;-75
2022/04/30 05:25:33;;;;;;;;;;;9.60;92.30;;;;;;5075250;28;20379;-75
2022/04/30 05:27:58;;;;;;;;;;;9.40;92.50;;;;;;5075274;28;19904;-75
2022/04/30 05:30:24;;;;;;;;;;;9.50;93.20;;;;;;5075218;28;19927;-75
2022/04/30 05:32:49;;;;;;;;;;;9.70;93.00;;;;;;5075377;28;19950;-75
2022/04/30 05:35:15;;;;;;;;;;;10.00;93.00;;;;;;5074845;28;19911;-75
2022/04/30 05:37:40;;;;;;;;;;;10.10;92.30;;;;;;5075223;28;19993;-75
2022/04/30 05:40:06;;;;;;;;;;;10.20;92.10;;;;;;5074562;28;19904;-75
2022/04/30 05:42:32;;;;;;;;;;;10.30;92.00;;;;;;5074754;28;19904;-75
2022/04/30 05:44:57;;;;;;;;;;;10.30;91.60;;;;;;5074898;28;19913;-73
2022/04/30 05:47:23;;;;;;;;;;;10.20;91.60;;;;;;5075099;28;20427;-78
2022/04/30 05:49:49;;;;;;;;;;;10.20;91.50;;;;;;5074495;28;19911;-77
2022/04/30 05:52:14;;;;;;;;;;;10.20;91.70;;;;;;5074860;28;19904;-77
2022/04/30 05:54:40;;;;;;;;;;;10.20;91.60;;;;;;5074656;28;19908;-76
2022/04/30 05:57:05;;;;;;;;;;;10.10;91.70;;;;;;5074569;28;19904;-76
2022/04/30 05:59:31;;;;;;;;;;;10.10;91.90;;;;;;5074825;28;19905;-76
2022/04/30 06:01:56;;;;;;;;;;;10.30;92.20;;;;;;5074822;28;20248;-76
2022/04/30 06:04:21;;;;;;;;;;;10.30;91.80;;;;;;5074148;28;20081;-76
2022/04/30 06:06:47;;;;;;;;;;;10.20;91.80;;;;;;5074691;28;19915;-76
2022/04/30 06:09:13;;;;;;;;;;;10.30;91.90;;;;;;5074641;28;19915;-77
2022/04/30 06:11:39;;;;;;;;;;;10.30;91.80;;;;;;5074074;28;19923;-76
2022/04/30 06:14:04;;;;;;;;;;;10.30;91.90;;;;;;5073382;28;19908;-76
2022/04/30 06:16:30;;;;;;;;;;;10.30;91.90;;;;;;5074312;28;19905;-78
2022/04/30 06:18:55;;;;;;;;;;;10.30;91.90;;;;;;5074457;28;19981;-76
2022/04/30 06:21:23;;;;;;;;;;;10.40;91.90;;;;;;5074044;28;20381;-76
2022/04/30 06:23:48;;;;;;;;;;;10.50;91.80;;;;;;5074132;28;19904;-79
2022/04/30 06:26:14;;;;;;;;;;;10.50;91.80;;;;;;5073971;28;19999;-77
2022/04/30 06:28:39;;;;;;;;;;;10.60;92.00;;;;;;5073871;28;19955;-77
2022/04/30 06:31:05;;;;;;;;;;;10.60;92.00;;;;;;5073716;28;19904;-77
2022/04/30 06:33:30;;;;;;;;;;;10.80;92.00;;;;;;5073614;28;19908;-78
2022/04/30 06:35:56;;;;;;;;;;;11.00;91.90;;;;;;5073778;28;19908;-78
2022/04/30 06:38:21;;;;;;;;;;;11.00;91.40;;;;;;5074043;28;19905;-79
2022/04/30 06:40:48;;;;;;;;;;;11.10;91.60;;;;;;5074037;28;20274;-79
2022/04/30 06:43:13;;;;;;;;;;;11.30;91.50;;;;;;5073516;28;20410;-79
2022/04/30 06:45:39;;;;;;;;;;;11.30;91.10;;;;;;5073604;28;19952;-76
2022/04/30 06:48:04;;;;;;;;;;;11.30;91.10;;;;;;5073763;28;19946;-85
2022/04/30 06:50:30;;;;;;;;;;;11.40;91.20;;;;;;5074121;28;20283;-78
2022/04/30 06:58:24;;;;;;;;;;;11.30;91.40;;;;;;5074055;28;19951;-75
2022/04/30 07:03:23;;;;;;;;;;;11.60;91.00;;;;;;5073743;28;19911;-74
2022/04/30 07:05:55;;;;;;;;;;;11.70;90.40;;;;;;5073752;28;19912;-74
2022/04/30 07:08:20;;;;;;;;;;;11.80;90.00;;;;;;5073379;28;19908;-74
2022/04/30 07:10:45;;;;;;;;;;;11.80;90.20;;;;;;5073447;28;20011;-73
2022/04/30 07:13:11;;;;;;;;;;;12.00;90.50;;;;;;5073298;28;19905;-74
2022/04/30 07:15:36;;;;;;;;;;;12.10;88.30;;;;;;5073317;28;20355;-73
2022/04/30 07:18:02;;;;;;;;;;;12.00;87.00;;;;;;5073044;28;19915;-73
2022/04/30 07:20:27;;;;;;;;;;;12.00;88.40;;;;;;5073149;28;20037;-74
2022/04/30 07:22:53;;;;;;;;;;;11.80;87.90;;;;;;5072959;28;19948;-74
2022/04/30 07:25:18;;;;;;;;;;;11.90;88.60;;;;;;5076844;28;19912;-74
2022/04/30 07:27:44;;;;;;;;;;;12.00;89.20;;;;;;5077419;28;20275;-74
2022/04/30 07:30:09;;;;;;;;;;;12.30;89.50;;;;;;5077906;28;19905;-74
2022/04/30 07:32:38;;;;;;;;;;;12.60;89.00;;;;;;5077795;28;20359;-74
2022/04/30 07:35:04;;;;;;;;;;;12.70;86.60;;;;;;5077325;28;19908;-74
2022/04/30 07:37:29;;;;;;;;;;;12.90;85.50;;;;;;5077283;28;19905;-74
2022/04/30 07:39:55;;;;;;;;;;;12.80;83.60;;;;;;5077312;28;19999;-74
2022/04/30 07:42:20;;;;;;;;;;;12.80;84.60;;;;;;5077056;28;19904;-74
2022/04/30 07:44:45;;;;;;;;;;;13.00;82.10;;;;;;5076909;28;20010;-74
2022/04/30 07:47:11;;;;;;;;;;;12.90;82.50;;;;;;5077352;28;19962;-74
2022/04/30 07:49:36;;;;;;;;;;;13.00;82.60;;;;;;5076684;28;20447;-74
2022/04/30 07:52:02;;;;;;;;;;;12.90;80.90;;;;;;5077375;28;19915;-74
2022/04/30 07:54:27;;;;;;;;;;;12.60;82.40;;;;;;5076843;28;19904;-74
2022/04/30 07:56:54;;;;;;;;;;;12.60;83.50;;;;;;5077117;28;19905;-74
2022/04/30 07:59:21;;;;;;;;;;;12.70;84.00;;;;;;5076922;28;19965;-74
2022/04/30 08:01:46;;;;;;;;;;;12.90;83.30;;;;;;5076792;28;20279;-74
2022/04/30 08:04:12;;;;;;;;;;;12.80;82.00;;;;;;5076724;28;19905;-74
2022/04/30 08:06:37;;;;;;;;;;;12.70;83.00;;;;;;5076622;28;19908;-73
2022/04/30 08:09:03;;;;;;;;;;;12.80;83.40;;;;;;5076896;28;20342;-73
2022/04/30 08:11:28;;;;;;;;;;;12.80;83.60;;;;;;5076406;28;19956;-74
2022/04/30 08:13:54;;;;;;;;;;;12.80;84.00;;;;;;5076300;28;19912;-74
2022/04/30 08:16:19;;;;;;;;;;;12.80;83.50;;;;;;5076566;28;19947;-74
2022/04/30 08:18:45;;;;;;;;;;;12.80;83.30;;;;;;5076689;28;19912;-74
2022/04/30 08:21:11;;;;;;;;;;;12.90;83.40;;;;;;5076111;28;19904;-74
2022/04/30 08:23:37;;;;;;;;;;;12.90;83.00;;;;;;5076715;28;19912;-74
2022/04/30 08:26:03;;;;;;;;;;;13.00;82.80;;;;;;5076277;28;19916;-74
2022/04/30 08:28:28;;;;;;;;;;;13.10;82.70;;;;;;5076632;28;19974;-74
2022/04/30 08:30:54;;;;;;;;;;;13.10;82.40;;;;;;5076520;28;19912;-74
2022/04/30 08:33:20;;;;;;;;;;;13.10;81.30;;;;;;5076000;28;19990;-74
2022/04/30 08:35:46;;;;;;;;;;;13.10;81.40;;;;;;5075582;28;19950;-74
2022/04/30 08:38:11;;;;;;;;;;;13.10;81.10;;;;;;5076163;28;19957;-74
2022/04/30 08:40:41;;;;;;;;;;;13.20;80.80;;;;;;5076383;28;19912;-74
2022/04/30 08:43:07;;;;;;;;;;;13.20;81.10;;;;;;5076263;28;19955;-74
2022/04/30 08:45:35;;;;;;;;;;;13.20;80.00;;;;;;5075966;28;19916;-74
2022/04/30 08:48:01;;;;;;;;;;;13.00;80.40;;;;;;5076063;28;19985;-74
2022/04/30 08:50:29;;;;;;;;;;;13.00;80.90;;;;;;5076056;28;19912;-75
2022/04/30 08:52:55;;;;;;;;;;;12.90;81.10;;;;;;5076144;28;19911;-74
2022/04/30 08:55:20;;;;;;;;;;;12.80;81.30;;;;;;5076072;28;19919;-74
2022/04/30 08:57:46;;;;;;;;;;;12.90;81.50;;;;;;5075556;28;19908;-74
2022/04/30 09:00:12;;;;;;;;;;;13.00;81.70;;;;;;5075562;28;19904;-74
2022/04/30 09:02:47;;;;;;;;;;;13.10;81.40;;;;;;5075691;28;19909;-74
2022/04/30 09:05:14;;;;;;;;;;;13.10;81.00;;;;;;5075624;28;19974;-74
2022/04/30 09:07:39;;;;;;;;;;;13.00;80.70;;;;;;5075546;28;19908;-74
2022/04/30 09:10:05;;;;;;;;;;;12.90;81.60;;;;;;5075353;28;19919;-74
2022/04/30 09:12:33;;;;;;;;;;;13.00;82.10;;;;;;5075126;28;20384;-74
2022/04/30 09:14:59;;;;;;;;;;;12.90;80.50;;;;;;5075603;28;19904;-74
2022/04/30 09:17:28;;;;;;;;;;;13.00;81.00;;;;;;5075542;28;19908;-74
2022/04/30 09:19:53;;;;;;;;;;;13.20;80.70;;;;;;5075649;28;19904;-74
2022/04/30 09:22:33;;;;;;;;;;;13.50;79.80;;;;;;5074998;28;20276;-74
2022/04/30 09:24:59;;;;;;;;;;;13.70;78.70;;;;;;5075478;28;19961;-75
2022/04/30 09:27:25;;;;;;;;;;;13.90;78.20;;;;;;5075398;28;19948;-74
2022/04/30 09:29:51;;;;;;;;;;;14.10;81.00;;;;;;5075379;28;20263;-74
2022/04/30 09:32:21;;;;;;;;;;;14.40;79.20;;;;;;5074981;28;20366;-75
2022/04/30 09:37:46;;;;;;;;;;;14.60;75.50;;;;;;5075419;28;19912;-73
2022/04/30 09:40:14;;;;;;;;;;;14.60;75.50;;;;;;5074633;28;19904;-73
2022/04/30 09:42:40;;;;;;;;;;;14.50;74.20;;;;;;5074798;28;20406;-73
2022/04/30 09:45:06;;;;;;;;;;;14.50;73.90;;;;;;5074611;28;19913;-73
2022/04/30 09:47:33;;;;;;;;;;;14.40;73.90;;;;;;5073802;28;19906;-73
2022/04/30 09:55:30;;;;;;;;;;;14.00;74.20;;;;;;5074220;28;20322;-73
2022/04/30 09:57:56;;;;;;;;;;;14.00;73.70;;;;;;5074614;28;19904;-73
2022/04/30 10:00:22;;;;;;;;;;;13.90;74.20;;;;;;5074530;28;19912;-73
2022/04/30 10:02:49;;;;;;;;;;;13.90;73.50;;;;;;5074293;28;20344;-73
2022/04/30 10:05:15;;;;;;;;;;;13.80;73.20;;;;;;5074310;28;19912;-73
2022/04/30 10:07:40;;;;;;;;;;;13.60;74.40;;;;;;5074365;28;19912;-74
2022/04/30 10:10:13;;;;;;;;;;;13.50;75.40;;;;;;5073901;28;19913;-74
2022/04/30 10:12:42;;;;;;;;;;;13.40;74.30;;;;;;5074537;28;19960;-74
2022/04/30 10:15:13;;;;;;;;;;;13.30;75.40;;;;;;5074163;28;19958;-74
2022/04/30 10:17:42;;;;;;;;;;;13.00;75.50;;;;;;5074133;28;20393;-74
2022/04/30 10:20:21;;;;;;;;;;;13.00;76.40;;;;;;5074083;28;19910;-74
2022/04/30 10:22:57;;;;;;;;;;;13.00;76.70;;;;;;5073876;28;19995;-74
2022/04/30 10:25:41;;;;;;;;;;;13.10;77.10;;;;;;5074192;28;19916;-74
2022/04/30 10:28:21;;;;;;;;;;;13.10;76.30;;;;;;5074353;28;19908;-74
2022/04/30 10:31:06;;;;;;;;;;;13.10;76.10;;;;;;5074318;28;20045;-74
2022/04/30 10:33:33;;;;;;;;;;;13.10;76.30;;;;;;5073598;28;20351;-74
2022/04/30 10:36:09;;;;;;;;;;;13.20;76.70;;;;;;5073884;28;19905;-74
2022/04/30 10:38:34;;;;;;;;;;;13.30;76.30;;;;;;5073849;28;20348;-74
2022/04/30 10:41:01;;;;;;;;;;;13.30;76.20;;;;;;5073756;28;19905;-74
2022/04/30 10:43:26;;;;;;;;;;;13.40;76.30;;;;;;5073733;28;19904;-74
2022/04/30 10:45:53;;;;;;;;;;;13.40;76.20;;;;;;5073953;28;19912;-74
2022/04/30 10:51:39;;;;;;;;;;;13.30;76.10;;;;;;5073657;28;20050;-74
2022/04/30 10:54:11;;;;;;;;;;;13.20;76.40;;;;;;5073471;28;19905;-74
2022/04/30 10:56:38;;;;;;;;;;;13.20;76.10;;;;;;5073549;28;20371;-74
2022/04/30 10:59:04;;;;;;;;;;;13.20;76.70;;;;;;5073579;28;20279;-74
2022/04/30 11:01:29;;;;;;;;;;;13.30;75.90;;;;;;5073551;28;19904;-74
2022/04/30 11:03:55;;;;;;;;;;;13.30;75.90;;;;;;5073633;28;19904;-74
2022/04/30 11:06:22;;;;;;;;;;;13.30;75.90;;;;;;5073267;28;19912;-74
2022/04/30 11:08:57;;;;;;;;;;;13.40;75.30;;;;;;5073830;28;20257;-74
2022/04/30 11:11:23;;;;;;;;;;;13.30;75.40;;;;;;5073008;28;19989;-74
2022/04/30 11:13:58;;;;;;;;;;;13.30;76.30;;;;;;5073492;28;19954;-74
2022/04/30 11:16:30;;;;;;;;;;;13.30;75.90;;;;;;5073643;28;20309;-74
2022/04/30 11:19:14;;;;;;;;;;;13.30;76.70;;;;;;5073355;28;19904;-74
2022/04/30 11:21:40;;;;;;;;;;;13.20;76.70;;;;;;5073396;28;19991;-74
2022/04/30 11:24:06;;;;;;;;;;;13.20;76.90;;;;;;5073425;28;20263;-75
2022/04/30 11:26:39;;;;;;;;;;;13.20;77.40;;;;;;5073244;28;20354;-75
2022/04/30 11:29:11;;;;;;;;;;;13.20;77.90;;;;;;5073222;28;19950;-74
2022/04/30 11:31:36;;;;;;;;;;;13.20;77.80;;;;;;5073445;28;19919;-74
2022/04/30 11:34:08;;;;;;;;;;;13.30;77.10;;;;;;5073221;28;20271;-74
2022/04/30 11:36:43;;;;;;;;;;;13.30;77.70;;;;;;5073133;28;19935;-74
2022/04/30 11:39:12;;;;;;;;;;;13.20;76.10;;;;;;5073186;28;19950;-74
2022/04/30 11:41:39;;;;;;;;;;;13.00;77.00;;;;;;5073247;28;19927;-74
2022/04/30 11:44:05;;;;;;;;;;;13.00;76.60;;;;;;5073135;28;19950;-74
2022/04/30 11:46:30;;;;;;;;;;;13.00;77.20;;;;;;5072948;28;19912;-74
2022/04/30 11:48:55;;;;;;;;;;;13.00;77.50;;;;;;5073364;28;19904;-75
2022/04/30 11:51:21;;;;;;;;;;;13.00;75.60;;;;;;5073295;28;20267;-74
2022/04/30 11:53:47;;;;;;;;;;;12.90;76.80;;;;;;5073070;28;19970;-75
2022/04/30 11:56:12;;;;;;;;;;;13.20;75.60;;;;;;5073087;28;19999;-74
2022/04/30 11:58:44;;;;;;;;;;;13.20;74.60;;;;;;5072711;28;19911;-74
2022/04/30 12:01:23;;;;;;;;;;;13.20;75.00;;;;;;5073062;28;19905;-74
2022/04/30 12:03:55;;;;;;;;;;;13.40;74.60;;;;;;5072936;28;19976;-74
2022/04/30 12:06:23;;;;;;;;;;;13.50;75.00;;;;;;5072692;28;19919;-74
2022/04/30 12:08:48;;;;;;;;;;;13.60;74.00;;;;;;5072900;28;19912;-74
2022/04/30 12:11:13;;;;;;;;;;;13.60;74.00;;;;;;5074234;28;19931;-73
2022/04/30 12:13:40;;;;;;;;;;;13.70;74.00;;;;;;5076529;28;19909;-74
2022/04/30 12:16:06;;;;;;;;;;;13.90;73.80;;;;;;5076446;28;20347;-74
2022/04/30 12:27:01;;;;;;;;;;;13.90;73.30;;;;;;5076813;28;19974;-74
2022/04/30 12:29:27;;;;;;;;;;;13.90;73.80;;;;;;5076258;28;19905;-74
2022/04/30 12:31:52;;;;;;;;;;;14.00;73.90;;;;;;5076204;28;20003;-74
2022/04/30 12:34:19;;;;;;;;;;;14.20;74.00;;;;;;5076478;28;20011;-74
2022/04/30 12:36:54;;;;;;;;;;;14.30;73.50;;;;;;5076151;28;20301;-74
2022/04/30 12:39:20;;;;;;;;;;;14.40;73.10;;;;;;5076241;28;19987;-74
2022/04/30 12:41:46;;;;;;;;;;;14.40;73.50;;;;;;5076160;28;19948;-74
2022/04/30 12:44:11;;;;;;;;;;;14.40;72.80;;;;;;5075898;28;19947;-74
2022/04/30 12:46:41;;;;;;;;;;;14.40;72.30;;;;;;5075886;28;19919;-74
2022/04/30 12:49:06;;;;;;;;;;;14.50;72.10;;;;;;5076060;28;19933;-72
2022/04/30 12:51:32;;;;;;;;;;;14.50;71.00;;;;;;5076026;28;19908;-73
2022/04/30 12:53:58;;;;;;;;;;;14.50;69.00;;;;;;5075464;28;20006;-73
2022/04/30 12:56:24;;;;;;;;;;;14.40;67.60;;;;;;5075870;28;19911;-73
2022/04/30 12:58:49;;;;;;;;;;;14.30;67.40;;;;;;5075809;28;19951;-73
2022/04/30 13:01:15;;;;;;;;;;;14.30;67.70;;;;;;5075983;28;20397;-73
2022/04/30 13:03:41;;;;;;;;;;;14.30;68.10;;;;;;5075659;28;19904;-73
2022/04/30 13:06:06;;;;;;;;;;;14.30;67.60;;;;;;5075723;28;19999;-73
2022/04/30 13:14:34;;;;;;;;;;;14.30;65.60;;;;;;5033352;28;19905;-73
2022/04/30 13:17:00;;;;;;;;;;;14.30;66.20;;;;;;5032906;28;20264;-73
2022/04/30 13:19:26;;;;;;;;;;;14.30;65.50;;;;;;5053309;28;19911;-73
2022/04/30 13:21:52;;;;;;;;;;;14.30;65.00;;;;;;5075072;28;20314;-73
2022/04/30 13:24:18;;;;;;;;;;;14.30;65.20;;;;;;5075252;28;20311;-73
2022/04/30 13:26:43;;;;;;;;;;;14.30;65.30;;;;;;5075279;28;19920;-73
2022/04/30 13:29:11;;;;;;;;;;;14.40;65.20;;;;;;5075253;28;19981;-73
2022/04/30 13:31:40;;;;;;;;;;;14.40;65.10;;;;;;5075420;28;20310;-73
2022/04/30 13:34:06;;;;;;;;;;;14.50;64.50;;;;;;5075358;28;19911;-73
2022/04/30 13:36:35;;;;;;;;;;;14.50;64.70;;;;;;5074902;28;19959;-73
2022/04/30 13:39:01;;;;;;;;;;;14.50;64.90;;;;;;5075015;28;19911;-74
2022/04/30 13:41:27;;;;;;;;;;;14.60;64.20;;;;;;5075140;28;19927;-74
2022/04/30 13:43:53;;;;;;;;;;;14.50;63.70;;;;;;5075414;28;20335;-73
2022/04/30 13:46:19;;;;;;;;;;;14.50;63.90;;;;;;5074918;28;20368;-73
2022/04/30 13:48:44;;;;;;;;;;;14.40;63.70;;;;;;5075048;28;20352;-73
2022/04/30 13:51:10;;;;;;;;;;;14.40;63.40;;;;;;5074572;28;19904;-73
2022/04/30 13:53:35;;;;;;;;;;;14.40;63.80;;;;;;5074734;28;19958;-74
2022/04/30 13:56:01;;;;;;;;;;;14.40;63.80;;;;;;5074493;28;19927;-73
2022/04/30 13:58:26;;;;;;;;;;;14.40;64.20;;;;;;5074540;28;19911;-74
2022/04/30 14:00:52;;;;;;;;;;;14.40;64.80;;;;;;5074678;28;19912;-73
2022/04/30 14:03:18;;;;;;;;;;;14.30;65.10;;;;;;5074230;28;19909;-73
2022/04/30 14:05:43;;;;;;;;;;;14.30;65.30;;;;;;5074366;28;19963;-74
2022/04/30 14:08:09;;;;;;;;;;;14.40;65.40;;;;;;5074219;28;19928;-73
2022/04/30 14:10:35;;;;;;;;;;;14.40;66.00;;;;;;5074170;28;19916;-73
2022/04/30 14:15:44;;;;;;;;;;;14.50;67.60;;;;;;5074243;28;19999;-73
2022/04/30 14:18:16;;;;;;;;;;;14.50;67.30;;;;;;5074045;28;19944;-73
2022/04/30 14:20:43;;;;;;;;;;;14.50;67.40;;;;;;5074138;28;20348;-73
2022/04/30 14:23:09;;;;;;;;;;;14.50;68.00;;;;;;5073894;28;19904;-73
2022/04/30 14:25:34;;;;;;;;;;;14.50;68.20;;;;;;5073891;28;19908;-74
2022/04/30 14:28:00;;;;;;;;;;;14.50;68.50;;;;;;5073991;28;19912;-73
2022/04/30 14:30:27;;;;;;;;;;;14.50;68.80;;;;;;5074071;28;19904;-73
2022/04/30 14:32:52;;;;;;;;;;;14.60;68.90;;;;;;5073806;28;20339;-73
2022/04/30 14:35:18;;;;;;;;;;;14.50;68.90;;;;;;5073053;28;19909;-73
2022/04/30 14:37:44;;;;;;;;;;;14.60;69.00;;;;;;5073901;28;19912;-73
2022/04/30 14:40:10;;;;;;;;;;;14.50;68.90;;;;;;5073748;28;19905;-73
2022/04/30 14:42:37;;;;;;;;;;;14.30;68.80;;;;;;5073768;28;19942;-73
2022/04/30 14:45:03;;;;;;;;;;;14.30;68.20;;;;;;5073704;28;19909;-73
2022/04/30 14:47:28;;;;;;;;;;;14.20;68.10;;;;;;5073715;28;19915;-73
2022/04/30 14:49:55;;;;;;;;;;;14.20;68.50;;;;;;5073689;28;19904;-74
2022/04/30 14:52:22;;;;;;;;;;;14.10;68.60;;;;;;5073793;28;19974;-74
2022/04/30 14:54:47;;;;;;;;;;;14.10;68.70;;;;;;5073354;28;19904;-74
2022/04/30 14:57:12;;;;;;;;;;;14.10;69.30;;;;;;5073799;28;19908;-74
2022/04/30 14:59:38;;;;;;;;;;;14.10;69.50;;;;;;5073460;28;19911;-74
2022/04/30 15:02:03;;;;;;;;;;;14.20;69.10;;;;;;5073543;28;19950;-74
2022/04/30 15:04:29;;;;;;;;;;;14.20;68.50;;;;;;5073671;28;20355;-74
2022/04/30 15:06:58;;;;;;;;;;;14.20;68.00;;;;;;5073506;28;19908;-74
2022/04/30 15:09:24;;;;;;;;;;;14.20;67.60;;;;;;5073065;28;19905;-74
2022/04/30 15:11:49;;;;;;;;;;;14.20;67.80;;;;;;5073512;28;19912;-74
2022/04/30 15:14:14;;;;;;;;;;;14.20;68.20;;;;;;5073231;28;19905;-74
2022/04/30 15:16:40;;;;;;;;;;;14.20;68.00;;;;;;5073638;28;19940;-74
2022/04/30 15:19:05;;;;;;;;;;;14.20;68.00;;;;;;5073300;28;19951;-74